sensor_id;sensor_type;location;lat;lon;timestamp;pressure;altitude;pressure_sealevel;temperature;humidity
3464;BME280;3551;41.578;24.706;2023-02-22T00:54:33;91133.84;;;4.33;72.85
3464;BME280;3551;41.578;24.706;2023-02-22T00:57:31;91142.00;;;4.24;72.12
3464;BME280;3551;41.578;24.706;2023-02-22T01:00:54;91125.19;;;4.13;72.76
3464;BME280;3551;41.578;24.706;2023-02-22T01:03:45;91136.78;;;4.05;73.25
3464;BME280;3551;41.578;24.706;2023-02-22T04:16:32;91119.34;;;3.59;74.47
3464;BME280;3551;41.578;24.706;2023-02-22T04:22:04;91113.50;;;3.50;73.96
3464;BME280;3551;41.578;24.706;2023-02-22T04:28:14;91107.56;;;3.56;74.29
3464;BME280;3551;41.578;24.706;2023-02-22T05:18:14;91119.25;;;3.55;76.52
3464;BME280;3551;41.578;24.706;2023-02-22T05:20:56;91124.72;;;3.66;77.05
3464;BME280;3551;41.578;24.706;2023-02-22T05:23:38;91131.44;;;3.82;75.93
3464;BME280;3551;41.578;24.706;2023-02-22T05:26:24;91119.66;;;3.76;75.50
3464;BME280;3551;41.578;24.706;2023-02-22T05:29:08;91128.19;;;3.89;75.13
3464;BME280;3551;41.578;24.706;2023-02-22T05:31:37;91132.69;;;3.88;75.67
3464;BME280;3551;41.578;24.706;2023-02-22T05:34:24;91128.59;;;3.91;75.58
3464;BME280;3551;41.578;24.706;2023-02-22T05:37:35;91126.31;;;3.89;75.43
3464;BME280;3551;41.578;24.706;2023-02-22T05:40:47;91133.91;;;3.91;75.21
3464;BME280;3551;41.578;24.706;2023-02-22T05:43:31;91129.41;;;3.95;75.56
3464;BME280;3551;41.578;24.706;2023-02-22T05:46:14;91136.81;;;4.09;74.88
3464;BME280;3551;41.578;24.706;2023-02-22T05:49:02;91134.19;;;4.09;75.97
3464;BME280;3551;41.578;24.706;2023-02-22T05:55:50;91126.50;;;5.91;69.30
3464;BME280;3551;41.578;24.706;2023-02-22T05:58:40;91136.31;;;7.22;66.99
3464;BME280;3551;41.578;24.706;2023-02-22T06:01:08;91140.88;;;8.18;62.37
3464;BME280;3551;41.578;24.706;2023-02-22T06:03:39;91135.66;;;8.99;60.60
3464;BME280;3551;41.578;24.706;2023-02-22T06:09:27;91140.91;;;9.56;58.38
3464;BME280;3551;41.578;24.706;2023-02-22T06:34:26;91151.63;;;9.38;57.65
3464;BME280;3551;41.578;24.706;2023-02-22T06:37:26;91150.53;;;9.18;57.72
3464;BME280;3551;41.578;24.706;2023-02-22T06:58:19;91140.88;;;8.15;62.07
3464;BME280;3551;41.578;24.706;2023-02-22T07:01:21;91137.84;;;8.13;62.36
3464;BME280;3551;41.578;24.706;2023-02-22T07:04:26;91133.22;;;7.92;62.68
3464;BME280;3551;41.578;24.706;2023-02-22T07:07:33;91134.75;;;7.97;62.24
3464;BME280;3551;41.578;24.706;2023-02-22T07:10:47;91139.69;;;7.94;61.89
3464;BME280;3551;41.578;24.706;2023-02-22T20:43:21;91079.66;;;7.11;69.38
3464;BME280;3551;41.578;24.706;2023-02-22T20:46:37;91081.94;;;7.09;69.68
3464;BME280;3551;41.578;24.706;2023-02-22T20:49:36;91074.97;;;6.90;70.58
3464;BME280;3551;41.578;24.706;2023-02-22T20:52:42;91072.66;;;6.82;71.25
3464;BME280;3551;41.578;24.706;2023-02-22T20:59:02;91069.59;;;6.83;70.13
3464;BME280;3551;41.578;24.706;2023-02-22T21:01:51;91070.00;;;6.82;70.03
3464;BME280;3551;41.578;24.706;2023-02-22T21:07:48;91073.34;;;6.75;70.90
3464;BME280;3551;41.578;24.706;2023-02-22T21:10:30;91078.28;;;6.73;70.92
3464;BME280;3551;41.578;24.706;2023-02-22T21:13:37;91074.25;;;6.42;72.21
